createdAt,value
2023-04-19T00:02:16.901Z,8.73
2023-04-19T00:04:45.300Z,8.75
2023-04-19T00:07:13.412Z,9.25
2023-04-19T00:09:40.726Z,9.13
2023-04-19T00:12:08.088Z,7.93
2023-04-19T00:14:35.750Z,8.90
2023-04-19T00:17:04.611Z,9.13
2023-04-19T00:19:32.065Z,8.10
2023-04-19T00:21:59.376Z,8.70
2023-04-19T00:24:26.665Z,9.10
2023-04-19T00:26:54.127Z,8.07
2023-04-19T00:29:21.523Z,9.73
2023-04-19T00:31:49.243Z,8.90
2023-04-19T00:34:16.840Z,9.75
2023-04-19T00:36:44.457Z,8.68
2023-04-19T00:39:13.774Z,9.48
2023-04-19T00:41:41.041Z,10.27
2023-04-19T00:44:08.763Z,9.00
2023-04-19T00:46:38.047Z,8.25
2023-04-19T00:49:05.539Z,10.52
2023-04-19T00:51:34.189Z,8.07
2023-04-19T00:54:03.311Z,9.88
2023-04-19T00:56:31.803Z,10.18
2023-04-19T00:58:59.635Z,10.05
2023-04-19T01:01:27.055Z,9.25
2023-04-19T01:03:54.643Z,9.50
2023-04-19T01:06:22.320Z,10.50
2023-04-19T01:08:49.693Z,9.88
2023-04-19T01:11:16.922Z,10.05
2023-04-19T01:13:45.758Z,9.02
2023-04-19T01:16:13.341Z,9.93
2023-04-19T01:18:41.389Z,10.05
2023-04-19T01:21:09.141Z,9.80
2023-04-19T01:23:39.046Z,10.32
2023-04-19T01:26:06.515Z,9.88
2023-04-19T01:28:33.808Z,10.25
2023-04-19T01:31:01.660Z,10.13
2023-04-19T01:33:29.227Z,10.48
2023-04-19T01:35:56.421Z,9.02
2023-04-19T01:38:23.872Z,9.57
2023-04-19T01:40:51.108Z,9.18
2023-04-19T01:43:18.870Z,8.95
2023-04-19T01:45:46.459Z,9.50
2023-04-19T01:48:13.874Z,9.20
2023-04-19T01:50:41.123Z,9.82
2023-04-19T01:53:08.453Z,8.85
2023-04-19T01:55:35.741Z,9.85
2023-04-19T01:58:03.058Z,9.25
2023-04-19T02:00:30.453Z,9.88
2023-04-19T02:02:57.864Z,10.95
2023-04-19T02:05:25.490Z,8.35
2023-04-19T02:07:54.384Z,9.70
2023-04-19T02:10:21.823Z,9.85
2023-04-19T02:12:49.081Z,9.55
2023-04-19T02:15:16.288Z,8.57
2023-04-19T02:17:43.722Z,9.00
2023-04-19T02:20:11.261Z,8.65
2023-04-19T02:22:38.727Z,8.93
2023-04-19T02:25:06.863Z,8.82
2023-04-19T02:27:34.340Z,8.65
2023-04-19T02:30:02.058Z,8.85
2023-04-19T02:32:31.822Z,8.88
2023-04-19T02:34:59.356Z,7.70
2023-04-19T02:37:26.713Z,7.63
2023-04-19T02:39:57.740Z,9.20
2023-04-19T02:42:25.198Z,7.15
2023-04-19T02:44:54.376Z,8.65
2023-04-19T02:47:25.028Z,8.98
2023-04-19T02:49:52.864Z,8.25
2023-04-19T02:52:20.828Z,9.02
2023-04-19T02:54:48.494Z,8.30
2023-04-19T02:57:16.080Z,8.65
2023-04-19T02:59:44.610Z,7.40
2023-04-19T03:02:12.254Z,7.18
2023-04-19T03:04:39.726Z,7.90
2023-04-19T03:07:08.846Z,8.40
2023-04-19T03:09:36.453Z,6.78
2023-04-19T03:12:05.271Z,7.38
2023-04-19T03:14:34.133Z,7.85
2023-04-19T03:17:01.987Z,7.85
2023-04-19T03:19:29.857Z,7.85
2023-04-19T03:21:57.232Z,9.32
2023-04-19T03:24:29.195Z,9.77
2023-04-19T03:26:58.118Z,9.30
2023-04-19T03:29:29.141Z,9.27
2023-04-19T03:32:07.534Z,10.57
2023-04-19T03:34:34.789Z,9.35
2023-04-19T03:37:02.149Z,8.48
2023-04-19T03:39:31.790Z,9.88
2023-04-19T03:42:03.549Z,11.43
2023-04-19T03:45:06.881Z,11.07
2023-04-19T03:47:39.059Z,12.85
2023-04-19T03:50:07.809Z,13.55
2023-04-19T03:52:36.173Z,14.88
2023-04-19T03:55:04.079Z,16.80
2023-04-19T03:57:37.877Z,14.77
2023-04-19T04:00:14.083Z,15.40
2023-04-19T04:02:41.438Z,16.42
2023-04-19T04:05:09.619Z,14.85
2023-04-19T04:07:37.748Z,17.05
2023-04-19T04:10:06.165Z,16.95
2023-04-19T04:12:38.657Z,16.80
2023-04-19T04:15:08.664Z,18.88
2023-04-19T04:17:39.017Z,17.60
2023-04-19T04:20:08.937Z,15.57
2023-04-19T04:22:42.061Z,16.25
2023-04-19T04:25:10.778Z,18.05
2023-04-19T04:27:39.427Z,17.30
2023-04-19T04:30:12.415Z,17.05
2023-04-19T04:32:41.232Z,18.50
2023-04-19T04:35:11.012Z,18.58
2023-04-19T04:37:54.017Z,18.70
2023-04-19T04:40:21.915Z,18.33
2023-04-19T04:42:49.534Z,19.55
2023-04-19T04:45:18.344Z,18.45
2023-04-19T04:47:48.936Z,18.25
2023-04-19T04:50:17.198Z,19.20
2023-04-19T04:52:45.137Z,17.27
2023-04-19T04:55:32.871Z,18.70
2023-04-19T04:58:00.479Z,18.73
2023-04-19T05:00:42.802Z,18.05
2023-04-19T05:03:11.593Z,16.42
2023-04-19T05:05:48.091Z,16.30
2023-04-19T05:08:15.688Z,16.75
2023-04-19T05:10:46.109Z,17.17
2023-04-19T05:13:14.713Z,16.02
2023-04-19T05:15:42.345Z,14.88
2023-04-19T05:18:10.194Z,15.18
2023-04-19T05:20:39.137Z,14.18
2023-04-19T05:23:13.738Z,14.20
2023-04-19T05:25:41.772Z,14.35
2023-04-19T05:28:09.527Z,13.10
2023-04-19T05:31:03.380Z,12.75
2023-04-19T05:33:35.521Z,14.38
2023-04-19T05:36:03.027Z,16.20
2023-04-19T05:38:30.425Z,13.57
2023-04-19T05:41:00.409Z,16.00
2023-04-19T05:43:27.798Z,15.20
2023-04-19T05:45:55.838Z,16.90
2023-04-19T05:48:23.426Z,16.80
2023-04-19T05:51:12.174Z,15.57
2023-04-19T05:54:03.246Z,15.38
2023-04-19T05:56:30.926Z,16.60
2023-04-19T05:59:00.024Z,17.92
2023-04-19T06:01:27.869Z,16.42
2023-04-19T06:03:55.854Z,15.02
2023-04-19T06:06:25.138Z,16.23
2023-04-19T06:08:54.743Z,14.95
2023-04-19T06:11:31.486Z,16.23
2023-04-19T06:14:06.391Z,14.85
2023-04-19T06:16:34.023Z,13.82
2023-04-19T06:19:01.570Z,13.25
2023-04-19T06:21:31.694Z,15.05
2023-04-19T06:23:59.138Z,15.77
2023-04-19T06:26:26.991Z,18.60
2023-04-19T06:28:54.428Z,14.27
2023-04-19T06:31:22.141Z,13.05
2023-04-19T06:33:49.848Z,14.10
2023-04-19T06:36:17.665Z,13.70
2023-04-19T06:38:46.281Z,13.82
2023-04-19T06:41:13.786Z,13.50
2023-04-19T06:43:42.854Z,12.18
2023-04-19T06:46:11.402Z,14.23
2023-04-19T06:48:38.834Z,14.30
2023-04-19T06:51:06.493Z,13.63
2023-04-19T06:53:34.492Z,13.25
2023-04-19T06:56:03.349Z,14.65
2023-04-19T06:58:34.549Z,13.82
2023-04-19T07:01:04.643Z,14.20
2023-04-19T07:03:33.094Z,17.40
2023-04-19T07:06:00.797Z,15.63
2023-04-19T07:08:42.350Z,15.07
2023-04-19T07:11:16.164Z,15.10
2023-04-19T07:13:43.656Z,15.90
2023-04-19T07:16:11.127Z,16.33
2023-04-19T07:18:38.631Z,15.68
2023-04-19T07:21:06.034Z,15.52
2023-04-19T07:23:33.678Z,14.27
2023-04-19T07:26:01.436Z,15.07
2023-04-19T07:28:29.689Z,15.55
2023-04-19T07:30:57.756Z,16.15
2023-04-19T07:33:28.000Z,16.63
2023-04-19T07:35:56.899Z,17.83
2023-04-19T07:38:24.898Z,19.17
2023-04-19T07:40:52.786Z,16.95
2023-04-19T07:43:20.248Z,15.73
2023-04-19T07:45:48.220Z,16.63
2023-04-19T07:48:15.561Z,16.58
2023-04-19T07:50:43.300Z,16.20
2023-04-19T07:53:10.833Z,16.33
2023-04-19T07:55:39.360Z,14.95
2023-04-19T07:58:06.816Z,14.27
2023-04-19T08:00:37.899Z,13.52
2023-04-19T08:03:05.867Z,12.20
2023-04-19T08:05:34.231Z,11.65
2023-04-19T08:08:01.698Z,11.80
2023-04-19T08:10:30.695Z,11.55
2023-04-19T08:13:05.706Z,11.77
2023-04-19T08:18:05.634Z,10.13
2023-04-19T08:20:33.900Z,9.27
2023-04-19T08:23:07.520Z,7.88
2023-04-19T08:25:42.118Z,8.43
2023-04-19T08:28:09.954Z,8.90
2023-04-19T08:30:37.437Z,9.85
2023-04-19T08:33:05.065Z,9.70
2023-04-19T08:35:34.261Z,13.75
2023-04-19T08:38:03.327Z,9.73
2023-04-19T08:40:31.881Z,10.48
2023-04-19T08:42:59.406Z,10.45
2023-04-19T08:45:30.816Z,9.68
2023-04-19T08:48:02.338Z,9.32
2023-04-19T08:50:35.809Z,9.23
2023-04-19T08:55:59.234Z,10.00
2023-04-19T09:01:12.787Z,8.80
2023-04-19T09:03:59.540Z,7.93
2023-04-19T09:06:36.738Z,9.10
2023-04-19T09:11:53.991Z,10.18
2023-04-19T09:14:22.852Z,8.85
2023-04-19T09:16:52.374Z,8.85
2023-04-19T09:19:25.020Z,8.18
2023-04-19T09:21:54.732Z,9.13
2023-04-19T09:25:14.496Z,8.50
2023-04-19T09:27:35.001Z,7.10
2023-04-19T09:30:04.186Z,7.80
2023-04-19T09:32:46.817Z,6.53
2023-04-19T09:35:14.734Z,6.45
2023-04-19T09:40:24.662Z,5.28
2023-04-19T09:48:03.454Z,5.15
2023-04-19T09:50:32.197Z,4.22
2023-04-19T09:53:01.763Z,4.90
2023-04-19T09:55:36.441Z,4.05
2023-04-19T09:58:12.704Z,3.65
2023-04-19T10:00:50.058Z,4.38
2023-04-19T10:03:22.214Z,3.75
2023-04-19T10:05:50.443Z,3.88
2023-04-19T10:08:18.684Z,3.90
2023-04-19T10:10:49.413Z,3.08
2023-04-19T10:13:21.307Z,3.83
2023-04-19T10:15:54.159Z,4.13
2023-04-19T10:18:27.393Z,3.42
2023-04-19T10:21:03.163Z,3.63
2023-04-19T10:23:32.779Z,3.35
2023-04-19T10:26:00.530Z,2.85
2023-04-19T10:28:31.288Z,2.88
2023-04-19T10:30:59.234Z,2.38
2023-04-19T10:33:28.209Z,2.40
2023-04-19T10:35:58.003Z,2.80
2023-04-19T10:38:49.412Z,3.40
2023-04-19T10:41:18.880Z,3.35
2023-04-19T10:44:08.647Z,2.90
2023-04-19T10:46:38.627Z,2.90
2023-04-19T10:49:09.083Z,3.08
2023-04-19T10:51:39.222Z,2.95
2023-04-19T10:54:26.569Z,2.83
2023-04-19T10:57:11.381Z,2.60
2023-04-19T10:59:40.961Z,2.60
2023-04-19T11:02:32.785Z,2.35
2023-04-19T11:05:01.889Z,2.25
2023-04-19T11:07:37.348Z,2.55
2023-04-19T11:10:05.393Z,1.92
2023-04-19T11:12:34.169Z,1.63
2023-04-19T11:15:02.821Z,3.47
2023-04-19T11:17:32.397Z,2.67
2023-04-19T11:20:08.470Z,1.83
2023-04-19T11:22:40.064Z,1.90
2023-04-19T11:25:21.163Z,2.03
2023-04-19T11:27:51.216Z,1.98
2023-04-19T11:30:23.004Z,2.10
2023-04-19T11:32:53.860Z,1.95
2023-04-19T11:35:23.234Z,1.90
2023-04-19T11:37:51.682Z,2.58
2023-04-19T11:40:23.297Z,2.80
2023-04-19T11:43:02.558Z,2.08
2023-04-19T11:45:34.821Z,2.45
2023-04-19T11:48:05.876Z,3.35
2023-04-19T11:50:40.668Z,2.80
2023-04-19T11:53:21.948Z,2.40
2023-04-19T11:55:51.661Z,2.60
2023-04-19T11:58:32.232Z,3.00
2023-04-19T12:01:08.708Z,3.22
2023-04-19T12:03:57.676Z,2.50
2023-04-19T12:06:33.201Z,3.05
2023-04-19T12:09:00.822Z,2.63
2023-04-19T12:11:44.420Z,3.17
2023-04-19T12:14:15.919Z,3.08
2023-04-19T12:16:44.885Z,2.50
2023-04-19T12:19:18.919Z,2.95
2023-04-19T12:21:47.571Z,3.00
2023-04-19T12:24:16.010Z,3.78
2023-04-19T12:26:57.813Z,2.92
2023-04-19T12:29:30.841Z,3.22
2023-04-19T12:31:58.322Z,3.33
2023-04-19T12:34:26.055Z,3.10
2023-04-19T12:36:54.027Z,2.95
2023-04-19T12:39:21.933Z,2.78
2023-04-19T12:41:49.937Z,3.03
2023-04-19T12:44:17.558Z,2.60
2023-04-19T12:46:45.238Z,2.83
2023-04-19T12:49:12.536Z,2.83
2023-04-19T12:51:40.007Z,2.60
2023-04-19T12:54:07.556Z,2.45
2023-04-19T12:56:35.288Z,2.85
2023-04-19T12:59:02.662Z,2.67
2023-04-19T13:01:32.147Z,2.90
2023-04-19T13:03:59.905Z,2.40
2023-04-19T13:06:27.741Z,2.65
2023-04-19T13:08:55.379Z,2.55
2023-04-19T13:11:27.342Z,3.03
2023-04-19T13:13:54.704Z,2.63
2023-04-19T13:16:22.682Z,2.88
2023-04-19T13:18:52.496Z,3.50
2023-04-19T13:21:20.300Z,2.95
2023-04-19T13:23:47.758Z,2.75
2023-04-19T13:26:16.239Z,2.75
2023-04-19T13:28:43.945Z,2.65
2023-04-19T13:31:11.692Z,2.92
2023-04-19T13:33:39.388Z,2.40
2023-04-19T13:36:07.749Z,2.45
2023-04-19T13:38:35.444Z,2.65
2023-04-19T13:41:03.996Z,1.80
2023-04-19T13:43:31.486Z,2.80
2023-04-19T13:45:58.972Z,2.42
2023-04-19T13:48:28.768Z,2.35
2023-04-19T13:50:57.207Z,2.58
2023-04-19T13:53:26.996Z,2.30
2023-04-19T13:55:55.246Z,2.53
2023-04-19T13:58:24.951Z,2.83
2023-04-19T14:00:53.618Z,2.53
2023-04-19T14:03:23.384Z,2.92
2023-04-19T14:05:51.179Z,2.90
2023-04-19T14:08:18.639Z,2.72
2023-04-19T14:10:46.344Z,2.38
2023-04-19T14:13:14.009Z,2.88
2023-04-19T14:15:41.550Z,2.42
2023-04-19T14:18:09.060Z,3.28
2023-04-19T14:20:36.597Z,2.80
2023-04-19T14:23:04.228Z,1.80
2023-04-19T14:25:31.951Z,2.50
2023-04-19T14:27:59.326Z,2.50
2023-04-19T14:30:27.271Z,2.20
2023-04-19T14:32:55.761Z,2.63
2023-04-19T14:35:23.559Z,3.13
2023-04-19T14:37:51.044Z,3.35
2023-04-19T14:40:19.991Z,2.78
2023-04-19T14:42:47.358Z,2.83
2023-04-19T14:45:15.263Z,2.67
2023-04-19T14:47:43.129Z,3.03
2023-04-19T14:50:10.800Z,3.25
2023-04-19T14:52:38.185Z,3.22
2023-04-19T14:55:06.276Z,3.25
2023-04-19T14:57:33.725Z,2.78
2023-04-19T15:00:02.236Z,3.00
2023-04-19T15:02:30.004Z,2.60
2023-04-19T15:04:58.050Z,2.80
2023-04-19T15:07:26.598Z,2.70
2023-04-19T15:09:54.179Z,3.25
2023-04-19T15:12:21.612Z,2.42
2023-04-19T15:14:49.356Z,3.17
2023-04-19T15:17:17.103Z,3.00
2023-04-19T15:19:46.932Z,9.02
2023-04-19T15:22:14.451Z,3.70
2023-04-19T15:24:42.575Z,3.38
2023-04-19T15:27:10.165Z,4.30
2023-04-19T15:29:39.510Z,3.78
2023-04-19T15:32:07.345Z,3.35
2023-04-19T15:34:35.567Z,2.97
2023-04-19T15:37:05.900Z,3.03
2023-04-19T15:39:33.501Z,2.92
2023-04-19T15:42:01.984Z,2.85
2023-04-19T15:44:30.062Z,3.03
2023-04-19T15:46:57.353Z,2.53
2023-04-19T15:49:24.757Z,2.75
2023-04-19T15:51:52.414Z,3.33
2023-04-19T15:54:22.005Z,3.28
2023-04-19T15:56:49.371Z,3.83
2023-04-19T15:59:16.985Z,4.32
2023-04-19T16:01:44.511Z,3.80
2023-04-19T16:04:12.039Z,3.88
2023-04-19T16:06:39.898Z,2.72
2023-04-19T16:09:08.427Z,3.08
2023-04-19T16:11:36.044Z,3.22
2023-04-19T16:14:03.452Z,3.25
2023-04-19T16:16:34.251Z,3.60
2023-04-19T16:19:01.998Z,3.45
2023-04-19T16:21:29.588Z,2.83
2023-04-19T16:23:57.214Z,3.38
2023-04-19T16:26:25.482Z,2.53
2023-04-19T16:28:53.055Z,2.85
2023-04-19T16:31:20.577Z,3.10
2023-04-19T16:33:48.038Z,2.55
2023-04-19T16:36:15.465Z,2.50
2023-04-19T16:38:42.860Z,3.08
2023-04-19T16:41:11.494Z,3.17
2023-04-19T16:43:39.041Z,2.80
2023-04-19T16:46:07.337Z,2.60
2023-04-19T16:48:34.827Z,2.88
2023-04-19T16:51:02.424Z,3.03
2023-04-19T16:53:31.880Z,3.35
2023-04-19T16:56:00.408Z,2.97
2023-04-19T16:58:27.932Z,3.65
2023-04-19T17:00:56.829Z,3.55
2023-04-19T17:03:24.662Z,2.72
2023-04-19T17:05:52.173Z,3.05
2023-04-19T17:08:21.353Z,3.30
2023-04-19T17:10:48.870Z,3.90
2023-04-19T17:13:16.437Z,3.47
2023-04-19T17:15:44.260Z,3.35
2023-04-19T17:18:11.763Z,3.63
2023-04-19T17:20:39.327Z,3.83
2023-04-19T17:23:07.021Z,3.53
2023-04-19T17:25:34.451Z,2.88
2023-04-19T17:28:02.230Z,3.13
2023-04-19T17:30:29.637Z,3.03
2023-04-19T17:32:57.116Z,3.40
2023-04-19T17:35:26.067Z,2.83
2023-04-19T17:37:53.498Z,3.90
2023-04-19T17:40:21.235Z,4.15
2023-04-19T17:42:48.751Z,4.22
2023-04-19T17:45:16.473Z,3.38
2023-04-19T17:47:44.319Z,2.92
2023-04-19T17:50:13.437Z,3.47
2023-04-19T17:52:40.960Z,3.47
2023-04-19T17:55:09.270Z,3.00
2023-04-19T17:57:36.839Z,3.40
2023-04-19T18:00:07.920Z,3.33
2023-04-19T18:02:38.612Z,2.83
2023-04-19T18:05:07.861Z,4.00
2023-04-19T18:07:38.599Z,2.80
2023-04-19T18:10:06.861Z,2.97
2023-04-19T18:12:34.385Z,2.60
2023-04-19T18:15:01.924Z,2.58
2023-04-19T18:17:30.138Z,2.83
2023-04-19T18:19:57.906Z,3.28
2023-04-19T18:22:25.222Z,3.05
2023-04-19T18:24:53.620Z,3.33
2023-04-19T18:27:21.339Z,3.10
2023-04-19T18:29:53.005Z,3.30
2023-04-19T18:32:22.705Z,3.88
2023-04-19T18:34:50.232Z,3.45
2023-04-19T18:37:17.931Z,2.80
2023-04-19T18:39:45.829Z,3.15
2023-04-19T18:42:13.351Z,3.53
2023-04-19T18:47:11.191Z,4.47
2023-04-19T18:49:38.629Z,3.97
2023-04-19T18:52:05.976Z,3.30
2023-04-19T18:54:33.568Z,4.28
2023-04-19T18:59:34.106Z,3.88
2023-04-19T19:02:01.508Z,3.17
2023-04-19T19:04:48.188Z,3.85
2023-04-19T19:07:34.107Z,3.67
2023-04-19T19:10:09.856Z,3.78
2023-04-19T19:12:44.142Z,4.35
2023-04-19T19:15:11.926Z,3.63
2023-04-19T19:17:39.371Z,3.85
2023-04-19T19:20:07.659Z,3.65
2023-04-19T19:22:35.367Z,3.80
2023-04-19T19:25:02.867Z,3.88
2023-04-19T19:27:30.645Z,3.95
2023-04-19T19:29:58.944Z,3.67
2023-04-19T19:32:26.227Z,5.50
2023-04-19T19:34:56.584Z,3.25
2023-04-19T19:37:26.883Z,3.75
2023-04-19T19:39:56.395Z,4.18
2023-04-19T19:42:24.929Z,4.55
2023-04-19T19:44:55.682Z,3.63
2023-04-19T19:47:24.450Z,4.20
2023-04-19T19:52:22.185Z,3.78
2023-04-19T19:54:49.791Z,3.88
2023-04-19T19:59:54.409Z,3.03
2023-04-19T20:02:23.055Z,3.65
2023-04-19T20:04:51.087Z,3.88
2023-04-19T20:07:37.295Z,4.47
2023-04-19T20:10:08.882Z,4.20
2023-04-19T20:12:37.292Z,4.47
2023-04-19T20:15:05.256Z,4.00
2023-04-19T20:17:32.676Z,4.63
2023-04-19T20:20:02.882Z,4.05
2023-04-19T20:22:30.442Z,3.80
2023-04-19T20:24:57.739Z,4.57
2023-04-19T20:27:25.495Z,4.60
2023-04-19T20:29:53.078Z,4.23
2023-04-19T20:32:20.727Z,4.30
2023-04-19T20:34:48.322Z,4.22
2023-04-19T20:37:17.418Z,4.07
2023-04-19T20:39:44.922Z,3.92
2023-04-19T20:42:12.493Z,3.97
2023-04-19T20:44:40.024Z,3.50
2023-04-19T20:47:09.112Z,3.80
2023-04-19T20:49:36.569Z,4.05
2023-04-19T20:52:04.056Z,4.07
2023-04-19T20:54:31.952Z,5.07
2023-04-19T20:57:04.552Z,3.70
2023-04-19T20:59:32.103Z,3.97
2023-04-19T21:02:00.281Z,3.90
2023-04-19T21:04:27.945Z,4.67
2023-04-19T21:06:55.549Z,3.00
2023-04-19T21:09:23.063Z,3.90
2023-04-19T21:11:50.487Z,3.58
2023-04-19T21:14:18.415Z,3.93
2023-04-19T21:16:45.878Z,4.37
2023-04-19T21:19:13.504Z,4.00
2023-04-19T21:21:41.349Z,5.43
2023-04-19T21:24:08.812Z,4.30
2023-04-19T21:26:36.276Z,4.50
2023-04-19T21:29:03.695Z,4.00
2023-04-19T21:31:31.417Z,3.80
2023-04-19T21:33:59.693Z,4.00
2023-04-19T21:36:28.469Z,3.70
2023-04-19T21:38:56.021Z,3.57
2023-04-19T21:41:23.594Z,3.90
2023-04-19T21:43:51.026Z,4.03
2023-04-19T21:46:18.520Z,4.13
2023-04-19T21:48:46.226Z,3.67
2023-04-19T21:51:14.334Z,3.67
2023-04-19T21:53:41.829Z,3.57
2023-04-19T21:56:09.323Z,3.63
2023-04-19T21:58:37.190Z,3.23
2023-04-19T22:01:04.586Z,4.70
2023-04-19T22:03:32.774Z,3.80
2023-04-19T22:06:02.041Z,3.87
2023-04-19T22:08:31.542Z,2.93
2023-04-19T22:11:01.168Z,3.40
2023-04-19T22:13:30.062Z,4.17
2023-04-19T22:15:57.645Z,3.87
2023-04-19T22:18:26.610Z,3.37
2023-04-19T22:20:55.962Z,4.27
2023-04-19T22:23:23.528Z,3.97
2023-04-19T22:25:50.921Z,3.77
2023-04-19T22:28:18.486Z,4.13
2023-04-19T22:30:46.005Z,3.87
2023-04-19T22:33:13.929Z,3.73
2023-04-19T22:35:41.484Z,3.50
2023-04-19T22:38:09.021Z,4.07
2023-04-19T22:40:37.185Z,4.37
2023-04-19T22:43:05.027Z,4.37
2023-04-19T22:45:32.772Z,3.60
2023-04-19T22:48:00.690Z,3.50
2023-04-19T22:50:28.725Z,3.77
2023-04-19T22:52:56.574Z,4.30
2023-04-19T22:55:24.257Z,4.10
2023-04-19T22:57:51.617Z,4.00
2023-04-19T23:00:19.869Z,3.33
2023-04-19T23:02:47.497Z,3.77
2023-04-19T23:05:15.444Z,4.40
2023-04-19T23:07:43.809Z,4.57
2023-04-19T23:10:12.418Z,4.57
2023-04-19T23:12:39.940Z,4.23
2023-04-19T23:15:08.214Z,4.03
2023-04-19T23:17:36.312Z,4.50
2023-04-19T23:20:05.951Z,3.87
2023-04-19T23:22:33.377Z,3.87
2023-04-19T23:25:00.919Z,5.27
2023-04-19T23:27:28.313Z,3.73
2023-04-19T23:29:56.011Z,3.87
2023-04-19T23:32:23.397Z,4.13
2023-04-19T23:34:51.003Z,3.60
2023-04-19T23:37:18.632Z,4.43
2023-04-19T23:39:46.000Z,3.93
2023-04-19T23:42:13.559Z,4.27
2023-04-19T23:44:43.462Z,5.20
2023-04-19T23:47:11.405Z,4.50
2023-04-19T23:49:38.883Z,3.50
2023-04-19T23:52:06.413Z,4.03
2023-04-19T23:54:34.025Z,4.10
2023-04-19T23:57:01.943Z,4.03
2023-04-19T23:59:29.611Z,4.70
